sensor_id;sensor_type;location;lat;lon;timestamp;pressure;altitude;pressure_sealevel;temperature;humidity
67840;BME280;54636;51.684;5.142;2024-02-26T00:00:12;99876.72;;;5.91;100.00
67840;BME280;54636;51.684;5.142;2024-02-26T00:02:37;99876.97;;;5.93;100.00
67840;BME280;54636;51.684;5.142;2024-02-26T00:05:06;99876.31;;;5.98;100.00
67840;BME280;54636;51.684;5.142;2024-02-26T00:07:32;99877.59;;;6.03;100.00
67840;BME280;54636;51.684;5.142;2024-02-26T00:09:57;99873.69;;;6.04;100.00
67840;BME280;54636;51.684;5.142;2024-02-26T00:12:23;99871.25;;;6.06;100.00
67840;BME280;54636;51.684;5.142;2024-02-26T00:14:48;99867.81;;;6.05;100.00
67840;BME280;54636;51.684;5.142;2024-02-26T00:17:15;99869.03;;;6.04;100.00
67840;BME280;54636;51.684;5.142;2024-02-26T00:19:40;99869.50;;;6.03;100.00
67840;BME280;54636;51.684;5.142;2024-02-26T00:22:06;99876.38;;;6.04;100.00
67840;BME280;54636;51.684;5.142;2024-02-26T00:24:31;99865.59;;;6.04;100.00
67840;BME280;54636;51.684;5.142;2024-02-26T00:26:57;99870.25;;;6.03;100.00
67840;BME280;54636;51.684;5.142;2024-02-26T00:29:22;99871.72;;;6.04;100.00
67840;BME280;54636;51.684;5.142;2024-02-26T00:31:48;99871.00;;;6.04;100.00
67840;BME280;54636;51.684;5.142;2024-02-26T00:34:14;99885.88;;;5.99;100.00
67840;BME280;54636;51.684;5.142;2024-02-26T00:36:39;99880.63;;;5.90;100.00
67840;BME280;54636;51.684;5.142;2024-02-26T00:39:05;99880.03;;;5.86;100.00
67840;BME280;54636;51.684;5.142;2024-02-26T00:41:30;99879.25;;;5.80;100.00
67840;BME280;54636;51.684;5.142;2024-02-26T00:43:55;99878.97;;;5.78;100.00
67840;BME280;54636;51.684;5.142;2024-02-26T00:46:21;99875.66;;;5.68;100.00
67840;BME280;54636;51.684;5.142;2024-02-26T00:48:46;99873.44;;;5.67;100.00
67840;BME280;54636;51.684;5.142;2024-02-26T00:51:11;99878.06;;;5.66;100.00
67840;BME280;54636;51.684;5.142;2024-02-26T00:53:37;99879.56;;;5.67;100.00
67840;BME280;54636;51.684;5.142;2024-02-26T00:56:02;99870.28;;;5.68;100.00
67840;BME280;54636;51.684;5.142;2024-02-26T00:58:28;99886.25;;;5.72;100.00
67840;BME280;54636;51.684;5.142;2024-02-26T01:00:53;99879.16;;;5.74;100.00
67840;BME280;54636;51.684;5.142;2024-02-26T01:03:19;99889.75;;;5.78;100.00
67840;BME280;54636;51.684;5.142;2024-02-26T01:05:45;99894.25;;;5.86;100.00
67840;BME280;54636;51.684;5.142;2024-02-26T01:08:10;99903.19;;;5.92;100.00
67840;BME280;54636;51.684;5.142;2024-02-26T01:10:36;99901.25;;;5.93;100.00
67840;BME280;54636;51.684;5.142;2024-02-26T01:13:01;99908.84;;;5.94;100.00
67840;BME280;54636;51.684;5.142;2024-02-26T01:15:27;99906.09;;;5.89;100.00
67840;BME280;54636;51.684;5.142;2024-02-26T01:17:53;99900.16;;;5.85;100.00
67840;BME280;54636;51.684;5.142;2024-02-26T01:20:18;99891.72;;;5.77;100.00
67840;BME280;54636;51.684;5.142;2024-02-26T01:22:44;99902.41;;;5.72;100.00
67840;BME280;54636;51.684;5.142;2024-02-26T01:25:10;99896.78;;;5.55;100.00
67840;BME280;54636;51.684;5.142;2024-02-26T01:27:36;99890.44;;;5.58;100.00
67840;BME280;54636;51.684;5.142;2024-02-26T01:30:05;99896.78;;;5.40;100.00
67840;BME280;54636;51.684;5.142;2024-02-26T01:32:31;99891.31;;;5.35;100.00
67840;BME280;54636;51.684;5.142;2024-02-26T01:34:57;99884.34;;;5.28;100.00
67840;BME280;54636;51.684;5.142;2024-02-26T01:37:22;99885.28;;;5.25;100.00
67840;BME280;54636;51.684;5.142;2024-02-26T01:39:47;99903.59;;;5.21;100.00
67840;BME280;54636;51.684;5.142;2024-02-26T01:42:13;99897.19;;;5.18;100.00
67840;BME280;54636;51.684;5.142;2024-02-26T01:44:38;99896.09;;;5.10;100.00
67840;BME280;54636;51.684;5.142;2024-02-26T01:47:05;99899.25;;;5.09;100.00
67840;BME280;54636;51.684;5.142;2024-02-26T01:49:31;99894.78;;;5.06;100.00
67840;BME280;54636;51.684;5.142;2024-02-26T01:51:58;99894.22;;;5.02;100.00
67840;BME280;54636;51.684;5.142;2024-02-26T01:54:24;99892.47;;;4.99;100.00
67840;BME280;54636;51.684;5.142;2024-02-26T01:56:49;99903.22;;;4.99;100.00
67840;BME280;54636;51.684;5.142;2024-02-26T01:59:16;99914.00;;;4.99;100.00
67840;BME280;54636;51.684;5.142;2024-02-26T02:01:44;99891.63;;;4.92;100.00
67840;BME280;54636;51.684;5.142;2024-02-26T02:04:11;99902.84;;;4.91;100.00
67840;BME280;54636;51.684;5.142;2024-02-26T02:06:37;99908.41;;;4.87;100.00
67840;BME280;54636;51.684;5.142;2024-02-26T02:09:03;99900.81;;;4.86;100.00
67840;BME280;54636;51.684;5.142;2024-02-26T02:11:33;99912.59;;;4.88;100.00
67840;BME280;54636;51.684;5.142;2024-02-26T02:13:59;99908.88;;;4.86;100.00
67840;BME280;54636;51.684;5.142;2024-02-26T02:16:24;99915.75;;;4.87;100.00
67840;BME280;54636;51.684;5.142;2024-02-26T02:18:50;99909.63;;;4.86;100.00
67840;BME280;54636;51.684;5.142;2024-02-26T02:21:15;99906.81;;;4.81;100.00
67840;BME280;54636;51.684;5.142;2024-02-26T02:23:40;99920.28;;;4.81;100.00
67840;BME280;54636;51.684;5.142;2024-02-26T02:26:11;99904.59;;;4.79;100.00
67840;BME280;54636;51.684;5.142;2024-02-26T02:28:37;99918.69;;;4.74;100.00
67840;BME280;54636;51.684;5.142;2024-02-26T02:31:02;99922.69;;;4.79;100.00
67840;BME280;54636;51.684;5.142;2024-02-26T02:33:29;99920.34;;;4.72;100.00
67840;BME280;54636;51.684;5.142;2024-02-26T02:35:54;99925.72;;;4.72;100.00
67840;BME280;54636;51.684;5.142;2024-02-26T02:38:20;99919.03;;;4.67;100.00
67840;BME280;54636;51.684;5.142;2024-02-26T02:40:46;99927.56;;;4.66;100.00
67840;BME280;54636;51.684;5.142;2024-02-26T02:43:11;99938.06;;;4.63;100.00
67840;BME280;54636;51.684;5.142;2024-02-26T02:45:36;99938.50;;;4.62;100.00
67840;BME280;54636;51.684;5.142;2024-02-26T02:48:02;99932.56;;;4.58;100.00
67840;BME280;54636;51.684;5.142;2024-02-26T02:50:28;99943.31;;;4.58;100.00
67840;BME280;54636;51.684;5.142;2024-02-26T02:52:54;99941.09;;;4.56;100.00
67840;BME280;54636;51.684;5.142;2024-02-26T02:55:19;99944.53;;;4.57;100.00
67840;BME280;54636;51.684;5.142;2024-02-26T02:57:45;99950.34;;;4.55;100.00
67840;BME280;54636;51.684;5.142;2024-02-26T03:00:11;99936.19;;;4.55;100.00
67840;BME280;54636;51.684;5.142;2024-02-26T03:02:37;99943.78;;;4.56;100.00
67840;BME280;54636;51.684;5.142;2024-02-26T03:05:06;99944.44;;;4.51;100.00
67840;BME280;54636;51.684;5.142;2024-02-26T03:07:32;99934.44;;;4.52;100.00
67840;BME280;54636;51.684;5.142;2024-02-26T03:09:57;99936.84;;;4.50;100.00
67840;BME280;54636;51.684;5.142;2024-02-26T03:12:23;99933.41;;;4.49;100.00
67840;BME280;54636;51.684;5.142;2024-02-26T03:14:48;99936.25;;;4.46;100.00
67840;BME280;54636;51.684;5.142;2024-02-26T03:17:13;99927.75;;;4.47;100.00
67840;BME280;54636;51.684;5.142;2024-02-26T03:19:39;99939.22;;;4.48;100.00
67840;BME280;54636;51.684;5.142;2024-02-26T03:22:04;99932.38;;;4.47;100.00
67840;BME280;54636;51.684;5.142;2024-02-26T03:24:30;99943.13;;;4.47;100.00
67840;BME280;54636;51.684;5.142;2024-02-26T03:26:55;99938.66;;;4.44;100.00
67840;BME280;54636;51.684;5.142;2024-02-26T03:29:21;99937.47;;;4.45;100.00
67840;BME280;54636;51.684;5.142;2024-02-26T03:31:46;99943.75;;;4.42;100.00
67840;BME280;54636;51.684;5.142;2024-02-26T03:34:12;99944.97;;;4.41;100.00
67840;BME280;54636;51.684;5.142;2024-02-26T03:36:39;99949.75;;;4.37;100.00
67840;BME280;54636;51.684;5.142;2024-02-26T03:39:04;99946.44;;;4.42;100.00
67840;BME280;54636;51.684;5.142;2024-02-26T03:41:33;99949.41;;;4.44;100.00
67840;BME280;54636;51.684;5.142;2024-02-26T03:43:58;99941.25;;;4.38;100.00
67840;BME280;54636;51.684;5.142;2024-02-26T03:46:24;99948.38;;;4.41;100.00
67840;BME280;54636;51.684;5.142;2024-02-26T03:48:49;99949.47;;;4.35;100.00
67840;BME280;54636;51.684;5.142;2024-02-26T03:51:15;99942.16;;;4.35;100.00
67840;BME280;54636;51.684;5.142;2024-02-26T03:53:40;99936.66;;;4.29;100.00
67840;BME280;54636;51.684;5.142;2024-02-26T03:56:06;99940.84;;;4.30;100.00
67840;BME280;54636;51.684;5.142;2024-02-26T03:58:32;99947.59;;;4.26;100.00
67840;BME280;54636;51.684;5.142;2024-02-26T04:00:59;99941.47;;;4.25;100.00
67840;BME280;54636;51.684;5.142;2024-02-26T04:03:24;99949.06;;;4.27;100.00
67840;BME280;54636;51.684;5.142;2024-02-26T04:05:50;99948.50;;;4.23;100.00
67840;BME280;54636;51.684;5.142;2024-02-26T04:08:16;99948.97;;;4.21;100.00
67840;BME280;54636;51.684;5.142;2024-02-26T04:10:41;99949.66;;;4.31;100.00
67840;BME280;54636;51.684;5.142;2024-02-26T04:13:07;99947.75;;;4.22;100.00
67840;BME280;54636;51.684;5.142;2024-02-26T04:15:33;99947.59;;;4.26;100.00
67840;BME280;54636;51.684;5.142;2024-02-26T04:17:58;99948.03;;;4.24;100.00
67840;BME280;54636;51.684;5.142;2024-02-26T04:20:24;99940.28;;;4.26;100.00
67840;BME280;54636;51.684;5.142;2024-02-26T04:22:49;99956.84;;;4.25;100.00
67840;BME280;54636;51.684;5.142;2024-02-26T04:25:15;99948.03;;;4.24;100.00
67840;BME280;54636;51.684;5.142;2024-02-26T04:27:40;99946.84;;;4.25;100.00
67840;BME280;54636;51.684;5.142;2024-02-26T04:30:06;99950.72;;;4.24;100.00
67840;BME280;54636;51.684;5.142;2024-02-26T04:32:32;99959.09;;;4.26;100.00
67840;BME280;54636;51.684;5.142;2024-02-26T04:34:58;99959.53;;;4.25;100.00
67840;BME280;54636;51.684;5.142;2024-02-26T04:37:23;99944.63;;;4.24;100.00
67840;BME280;54636;51.684;5.142;2024-02-26T04:39:48;99971.63;;;4.29;100.00
67840;BME280;54636;51.684;5.142;2024-02-26T04:42:14;99970.13;;;4.28;100.00
67840;BME280;54636;51.684;5.142;2024-02-26T04:44:39;99970.88;;;4.29;100.00
67840;BME280;54636;51.684;5.142;2024-02-26T04:47:04;99967.16;;;4.26;100.00
67840;BME280;54636;51.684;5.142;2024-02-26T04:49:30;99968.47;;;4.31;100.00
67840;BME280;54636;51.684;5.142;2024-02-26T04:51:55;99975.50;;;4.28;100.00
67840;BME280;54636;51.684;5.142;2024-02-26T04:54:21;99975.66;;;4.25;100.00
67840;BME280;54636;51.684;5.142;2024-02-26T04:56:47;99978.19;;;4.28;100.00
67840;BME280;54636;51.684;5.142;2024-02-26T04:59:12;99973.44;;;4.23;100.00
67840;BME280;54636;51.684;5.142;2024-02-26T05:01:39;99986.72;;;4.27;100.00
67840;BME280;54636;51.684;5.142;2024-02-26T05:04:05;99993.13;;;4.29;100.00
67840;BME280;54636;51.684;5.142;2024-02-26T05:06:30;99992.81;;;4.27;100.00
67840;BME280;54636;51.684;5.142;2024-02-26T05:08:55;99996.38;;;4.34;100.00
67840;BME280;54636;51.684;5.142;2024-02-26T05:11:21;99996.53;;;4.30;100.00
67840;BME280;54636;51.684;5.142;2024-02-26T05:13:47;99987.75;;;4.29;100.00
67840;BME280;54636;51.684;5.142;2024-02-26T05:16:13;99999.25;;;4.30;100.00
67840;BME280;54636;51.684;5.142;2024-02-26T05:18:38;100003.13;;;4.29;100.00
67840;BME280;54636;51.684;5.142;2024-02-26T05:21:04;99991.19;;;4.30;100.00
67840;BME280;54636;51.684;5.142;2024-02-26T05:23:29;100002.66;;;4.30;100.00
67840;BME280;54636;51.684;5.142;2024-02-26T05:25:55;99997.47;;;4.27;100.00
67840;BME280;54636;51.684;5.142;2024-02-26T05:28:20;100007.75;;;4.28;100.00
67840;BME280;54636;51.684;5.142;2024-02-26T05:30:46;100015.53;;;4.26;100.00
67840;BME280;54636;51.684;5.142;2024-02-26T05:33:12;100018.97;;;4.27;100.00
67840;BME280;54636;51.684;5.142;2024-02-26T05:35:37;100014.78;;;4.26;100.00
67840;BME280;54636;51.684;5.142;2024-02-26T05:38:03;100030.91;;;4.26;100.00
67840;BME280;54636;51.684;5.142;2024-02-26T05:40:28;100024.06;;;4.25;100.00
67840;BME280;54636;51.684;5.142;2024-02-26T05:42:55;100044.81;;;4.24;100.00
67840;BME280;54636;51.684;5.142;2024-02-26T05:45:20;100030.34;;;4.22;100.00
67840;BME280;54636;51.684;5.142;2024-02-26T05:47:47;100035.72;;;4.22;100.00
67840;BME280;54636;51.684;5.142;2024-02-26T05:50:12;100031.38;;;4.24;100.00
67840;BME280;54636;51.684;5.142;2024-02-26T05:52:38;100034.97;;;4.21;100.00
67840;BME280;54636;51.684;5.142;2024-02-26T05:55:04;100045.72;;;4.21;100.00
67840;BME280;54636;51.684;5.142;2024-02-26T05:57:31;100040.50;;;4.18;100.00
67840;BME280;54636;51.684;5.142;2024-02-26T05:59:57;100050.50;;;4.17;100.00
67840;BME280;54636;51.684;5.142;2024-02-26T06:02:22;100054.09;;;4.14;100.00
67840;BME280;54636;51.684;5.142;2024-02-26T06:04:47;100062.16;;;4.14;100.00
67840;BME280;54636;51.684;5.142;2024-02-26T06:07:13;100056.34;;;4.16;100.00
67840;BME280;54636;51.684;5.142;2024-02-26T06:09:38;100060.69;;;4.13;100.00
67840;BME280;54636;51.684;5.142;2024-02-26T06:12:05;100058.91;;;4.10;100.00
67840;BME280;54636;51.684;5.142;2024-02-26T06:14:30;100055.91;;;4.08;100.00
67840;BME280;54636;51.684;5.142;2024-02-26T06:16:55;100064.56;;;4.12;100.00
67840;BME280;54636;51.684;5.142;2024-02-26T06:19:21;100069.19;;;4.12;100.00
67840;BME280;54636;51.684;5.142;2024-02-26T06:21:46;100069.03;;;4.15;100.00
67840;BME280;54636;51.684;5.142;2024-02-26T06:24:11;100078.28;;;4.14;100.00
67840;BME280;54636;51.684;5.142;2024-02-26T06:26:37;100072.19;;;4.14;100.00
67840;BME280;54636;51.684;5.142;2024-02-26T06:29:02;100082.03;;;4.17;100.00
67840;BME280;54636;51.684;5.142;2024-02-26T06:31:27;100092.78;;;4.17;100.00
67840;BME280;54636;51.684;5.142;2024-02-26T06:33:53;100101.13;;;4.19;100.00
67840;BME280;54636;51.684;5.142;2024-02-26T06:36:19;100103.81;;;4.19;100.00
67840;BME280;54636;51.684;5.142;2024-02-26T06:38:44;100101.41;;;4.21;100.00
67840;BME280;54636;51.684;5.142;2024-02-26T06:41:10;100095.75;;;4.19;100.00
67840;BME280;54636;51.684;5.142;2024-02-26T06:43:36;100103.19;;;4.24;100.00
67840;BME280;54636;51.684;5.142;2024-02-26T06:46:02;100106.81;;;4.21;100.00
67840;BME280;54636;51.684;5.142;2024-02-26T06:48:27;100103.38;;;4.20;100.00
67840;BME280;54636;51.684;5.142;2024-02-26T06:50:53;100118.00;;;4.19;100.00
67840;BME280;54636;51.684;5.142;2024-02-26T06:53:18;100118.28;;;4.21;100.00
67840;BME280;54636;51.684;5.142;2024-02-26T06:55:44;100114.13;;;4.20;100.00
67840;BME280;54636;51.684;5.142;2024-02-26T06:58:09;100128.13;;;4.24;100.00
67840;BME280;54636;51.684;5.142;2024-02-26T07:00:35;100119.03;;;4.22;100.00
67840;BME280;54636;51.684;5.142;2024-02-26T07:03:00;100116.06;;;4.20;100.00
67840;BME280;54636;51.684;5.142;2024-02-26T07:05:27;100127.56;;;4.20;100.00
67840;BME280;54636;51.684;5.142;2024-02-26T07:07:52;100135.16;;;4.22;100.00
67840;BME280;54636;51.684;5.142;2024-02-26T07:10:18;100134.25;;;4.25;100.00
67840;BME280;54636;51.684;5.142;2024-02-26T07:12:43;100128.31;;;4.12;100.00
67840;BME280;54636;51.684;5.142;2024-02-26T07:15:09;100138.59;;;4.22;100.00
67840;BME280;54636;51.684;5.142;2024-02-26T07:17:35;100156.22;;;4.23;100.00
67840;BME280;54636;51.684;5.142;2024-02-26T07:20:00;100150.56;;;4.21;100.00
67840;BME280;54636;51.684;5.142;2024-02-26T07:22:26;100158.03;;;4.17;100.00
67840;BME280;54636;51.684;5.142;2024-02-26T07:24:51;100165.19;;;4.20;100.00
67840;BME280;54636;51.684;5.142;2024-02-26T07:27:18;100162.78;;;4.22;100.00
67840;BME280;54636;51.684;5.142;2024-02-26T07:29:43;100173.25;;;4.20;100.00
67840;BME280;54636;51.684;5.142;2024-02-26T07:32:09;100180.13;;;4.21;100.00
67840;BME280;54636;51.684;5.142;2024-02-26T07:34:35;100174.00;;;4.21;100.00
67840;BME280;54636;51.684;5.142;2024-02-26T07:37:02;100176.84;;;4.17;100.00
67840;BME280;54636;51.684;5.142;2024-02-26T07:39:28;100184.28;;;4.22;100.00
67840;BME280;54636;51.684;5.142;2024-02-26T07:41:53;100180.13;;;4.21;100.00
67840;BME280;54636;51.684;5.142;2024-02-26T07:44:19;100173.53;;;4.22;100.00
67840;BME280;54636;51.684;5.142;2024-02-26T07:46:44;100185.78;;;4.23;100.00
67840;BME280;54636;51.684;5.142;2024-02-26T07:49:10;100188.03;;;4.25;100.00
67840;BME280;54636;51.684;5.142;2024-02-26T07:51:35;100179.97;;;4.25;100.00
67840;BME280;54636;51.684;5.142;2024-02-26T07:54:00;100187.72;;;4.23;100.00
67840;BME280;54636;51.684;5.142;2024-02-26T07:56:26;100195.06;;;4.22;100.00
67840;BME280;54636;51.684;5.142;2024-02-26T07:58:51;100200.72;;;4.24;100.00
67840;BME280;54636;51.684;5.142;2024-02-26T08:01:17;100206.09;;;4.24;100.00
67840;BME280;54636;51.684;5.142;2024-02-26T08:03:42;100210.88;;;4.29;100.00
67840;BME280;54636;51.684;5.142;2024-02-26T08:06:08;100213.25;;;4.27;100.00
67840;BME280;54636;51.684;5.142;2024-02-26T08:08:33;100219.22;;;4.32;100.00
67840;BME280;54636;51.684;5.142;2024-02-26T08:10:59;100210.72;;;4.33;100.00
67840;BME280;54636;51.684;5.142;2024-02-26T08:13:24;100229.97;;;4.32;100.00
67840;BME280;54636;51.684;5.142;2024-02-26T08:15:51;100231.94;;;4.31;100.00
67840;BME280;54636;51.684;5.142;2024-02-26T08:18:17;100223.56;;;4.29;100.00
67840;BME280;54636;51.684;5.142;2024-02-26T08:20:42;100227.28;;;4.32;100.00
67840;BME280;54636;51.684;5.142;2024-02-26T08:23:08;100229.97;;;4.32;100.00
67840;BME280;54636;51.684;5.142;2024-02-26T08:25:33;100231.94;;;4.31;100.00
67840;BME280;54636;51.684;5.142;2024-02-26T08:27:58;100238.03;;;4.32;100.00
67840;BME280;54636;51.684;5.142;2024-02-26T08:30:24;100232.66;;;4.32;100.00
67840;BME280;54636;51.684;5.142;2024-02-26T08:32:49;100242.97;;;4.33;100.00
67840;BME280;54636;51.684;5.142;2024-02-26T08:35:15;100235.66;;;4.34;100.00
67840;BME280;54636;51.684;5.142;2024-02-26T08:37:44;100238.63;;;4.36;100.00
67840;BME280;54636;51.684;5.142;2024-02-26T08:40:10;100247.00;;;4.38;100.00
67840;BME280;54636;51.684;5.142;2024-02-26T08:42:35;100247.59;;;4.42;100.00
67840;BME280;54636;51.684;5.142;2024-02-26T08:45:01;100256.84;;;4.41;100.00
67840;BME280;54636;51.684;5.142;2024-02-26T08:47:27;100254.91;;;4.41;100.00
67840;BME280;54636;51.684;5.142;2024-02-26T08:49:53;100250.28;;;4.42;100.00
67840;BME280;54636;51.684;5.142;2024-02-26T08:52:18;100270.91;;;4.45;100.00
67840;BME280;54636;51.684;5.142;2024-02-26T08:54:44;100278.38;;;4.41;100.00
67840;BME280;54636;51.684;5.142;2024-02-26T08:57:09;100265.81;;;4.47;100.00
67840;BME280;54636;51.684;5.142;2024-02-26T08:59:35;100279.72;;;4.45;100.00
67840;BME280;54636;51.684;5.142;2024-02-26T09:02:00;100273.88;;;4.47;100.00
67840;BME280;54636;51.684;5.142;2024-02-26T09:04:25;100274.47;;;4.51;100.00
67840;BME280;54636;51.684;5.142;2024-02-26T09:06:52;100283.28;;;4.42;100.00
67840;BME280;54636;51.684;5.142;2024-02-26T09:09:17;100287.00;;;4.54;100.00
67840;BME280;54636;51.684;5.142;2024-02-26T09:11:43;100288.66;;;4.51;100.00
67840;BME280;54636;51.684;5.142;2024-02-26T09:14:08;100290.16;;;4.52;100.00
67840;BME280;54636;51.684;5.142;2024-02-26T09:16:34;100288.22;;;4.53;100.00
67840;BME280;54636;51.684;5.142;2024-02-26T09:18:59;100304.81;;;4.51;100.00
67840;BME280;54636;51.684;5.142;2024-02-26T09:21:24;100292.69;;;4.47;100.00
67840;BME280;54636;51.684;5.142;2024-02-26T09:23:51;100296.44;;;4.49;100.00
67840;BME280;54636;51.684;5.142;2024-02-26T09:26:16;100309.72;;;4.53;100.00
67840;BME280;54636;51.684;5.142;2024-02-26T09:28:42;100314.34;;;4.52;100.00
67840;BME280;54636;51.684;5.142;2024-02-26T09:31:07;100317.06;;;4.52;100.00
67840;BME280;54636;51.684;5.142;2024-02-26T09:33:33;100321.97;;;4.54;100.00
67840;BME280;54636;51.684;5.142;2024-02-26T09:35:58;100326.44;;;4.57;100.00
67840;BME280;54636;51.684;5.142;2024-02-26T09:38:26;100340.63;;;4.57;100.00
67840;BME280;54636;51.684;5.142;2024-02-26T09:40:51;100335.44;;;4.54;100.00
67840;BME280;54636;51.684;5.142;2024-02-26T09:43:21;100338.38;;;4.56;100.00
67840;BME280;54636;51.684;5.142;2024-02-26T09:45:47;100338.69;;;4.58;100.00
67840;BME280;54636;51.684;5.142;2024-02-26T09:48:15;100353.47;;;4.62;100.00
67840;BME280;54636;51.684;5.142;2024-02-26T09:50:43;100361.84;;;4.55;100.00
67840;BME280;54636;51.684;5.142;2024-02-26T09:53:10;100362.44;;;4.59;100.00
67840;BME280;54636;51.684;5.142;2024-02-26T09:55:36;100360.50;;;4.60;100.00
67840;BME280;54636;51.684;5.142;2024-02-26T09:58:04;100367.06;;;4.59;100.00
67840;BME280;54636;51.684;5.142;2024-02-26T10:00:31;100367.53;;;4.57;100.00
67840;BME280;54636;51.684;5.142;2024-02-26T10:03:04;100353.31;;;4.57;100.00
67840;BME280;54636;51.684;5.142;2024-02-26T10:05:29;100381.56;;;4.61;100.00
67840;BME280;54636;51.684;5.142;2024-02-26T10:07:57;100377.84;;;4.59;100.00
67840;BME280;54636;51.684;5.142;2024-02-26T10:10:23;100383.22;;;4.59;100.00
67840;BME280;54636;51.684;5.142;2024-02-26T10:12:49;100392.31;;;4.61;100.00
67840;BME280;54636;51.684;5.142;2024-02-26T10:15:14;100388.16;;;4.60;100.00
67840;BME280;54636;51.684;5.142;2024-02-26T10:17:41;100395.47;;;4.60;100.00
67840;BME280;54636;51.684;5.142;2024-02-26T10:20:14;100401.16;;;4.62;100.00
67840;BME280;54636;51.684;5.142;2024-02-26T10:22:41;100403.69;;;4.66;100.00
67840;BME280;54636;51.684;5.142;2024-02-26T10:25:07;100412.66;;;4.62;100.00
67840;BME280;54636;51.684;5.142;2024-02-26T10:27:34;100416.84;;;4.63;100.00
67840;BME280;54636;51.684;5.142;2024-02-26T10:30:23;100406.97;;;4.60;100.00
67840;BME280;54636;51.684;5.142;2024-02-26T10:32:51;100421.03;;;4.64;100.00
67840;BME280;54636;51.684;5.142;2024-02-26T10:35:17;100432.22;;;4.63;100.00
67840;BME280;54636;51.684;5.142;2024-02-26T10:37:43;100435.66;;;4.63;100.00
67840;BME280;54636;51.684;5.142;2024-02-26T10:40:13;100430.59;;;4.66;100.00
67840;BME280;54636;51.684;5.142;2024-02-26T10:42:39;100437.91;;;4.65;100.00
67840;BME280;54636;51.684;5.142;2024-02-26T10:45:09;100451.06;;;4.63;100.00
67840;BME280;54636;51.684;5.142;2024-02-26T10:47:36;100450.47;;;4.68;100.00
67840;BME280;54636;51.684;5.142;2024-02-26T10:50:02;100454.34;;;4.67;100.00
67840;BME280;54636;51.684;5.142;2024-02-26T10:52:31;100418.66;;;4.48;100.00
67840;BME280;54636;51.684;5.142;2024-02-26T10:55:00;100463.78;;;4.72;100.00
67840;BME280;54636;51.684;5.142;2024-02-26T10:57:31;100464.97;;;4.71;100.00
67840;BME280;54636;51.684;5.142;2024-02-26T10:59:59;100464.50;;;4.72;100.00
67840;BME280;54636;51.684;5.142;2024-02-26T11:02:25;100470.34;;;4.71;100.00
67840;BME280;54636;51.684;5.142;2024-02-26T11:04:51;100479.16;;;4.71;100.00
67840;BME280;54636;51.684;5.142;2024-02-26T11:07:17;100484.53;;;4.71;100.00
67840;BME280;54636;51.684;5.142;2024-02-26T11:09:45;100461.22;;;4.59;100.00
67840;BME280;54636;51.684;5.142;2024-02-26T11:12:17;100476.91;;;4.70;100.00
67840;BME280;54636;51.684;5.142;2024-02-26T11:14:45;100489.78;;;4.75;100.00
67840;BME280;54636;51.684;5.142;2024-02-26T11:17:12;100484.84;;;4.73;100.00
67840;BME280;54636;51.684;5.142;2024-02-26T11:19:39;100482.91;;;4.74;100.00
67840;BME280;54636;51.684;5.142;2024-02-26T11:22:06;100496.22;;;4.77;100.00
67840;BME280;54636;51.684;5.142;2024-02-26T11:24:32;100497.09;;;4.83;100.00
67840;BME280;54636;51.684;5.142;2024-02-26T11:27:01;100493.22;;;4.75;100.00
67840;BME280;54636;51.684;5.142;2024-02-26T11:29:35;100498.31;;;4.82;100.00
67840;BME280;54636;51.684;5.142;2024-02-26T11:32:03;100500.09;;;4.85;100.00
67840;BME280;54636;51.684;5.142;2024-02-26T11:34:29;100514.59;;;4.88;100.00
67840;BME280;54636;51.684;5.142;2024-02-26T11:36:55;100512.34;;;4.86;100.00
67840;BME280;54636;51.684;5.142;2024-02-26T11:39:21;100512.34;;;4.86;100.00
67840;BME280;54636;51.684;5.142;2024-02-26T11:41:47;100504.59;;;4.88;100.00
67840;BME280;54636;51.684;5.142;2024-02-26T11:44:13;100508.78;;;4.89;100.00
67840;BME280;54636;51.684;5.142;2024-02-26T11:46:40;100512.66;;;4.88;100.00
67840;BME280;54636;51.684;5.142;2024-02-26T11:51:53;100513.41;;;4.89;100.00
67840;BME280;54636;51.684;5.142;2024-02-26T11:54:43;100520.75;;;4.97;100.00
67840;BME280;54636;51.684;5.142;2024-02-26T11:59:48;100524.34;;;4.94;100.00
67840;BME280;54636;51.684;5.142;2024-02-26T12:02:40;100526.72;;;4.92;100.00
67840;BME280;54636;51.684;5.142;2024-02-26T12:05:17;100525.97;;;4.92;100.00
67840;BME280;54636;51.684;5.142;2024-02-26T12:07:54;100531.97;;;4.96;100.00
67840;BME280;54636;51.684;5.142;2024-02-26T12:10:31;100530.31;;;4.99;100.00
67840;BME280;54636;51.684;5.142;2024-02-26T12:13:13;100535.69;;;4.99;100.00
67840;BME280;54636;51.684;5.142;2024-02-26T12:15:44;100534.78;;;4.92;100.00
67840;BME280;54636;51.684;5.142;2024-02-26T12:18:17;100542.28;;;4.97;100.00
67840;BME280;54636;51.684;5.142;2024-02-26T12:20:43;100535.09;;;4.85;100.00
67840;BME280;54636;51.684;5.142;2024-02-26T12:23:16;100565.31;;;4.99;100.00
67840;BME280;54636;51.684;5.142;2024-02-26T12:25:43;100562.00;;;4.94;100.00
67840;BME280;54636;51.684;5.142;2024-02-26T12:28:09;100566.94;;;4.96;100.00
67840;BME280;54636;51.684;5.142;2024-02-26T12:30:35;100568.28;;;5.01;100.00
67840;BME280;54636;51.684;5.142;2024-02-26T12:33:01;100562.63;;;4.99;100.00
67840;BME280;54636;51.684;5.142;2024-02-26T12:35:27;100578.03;;;5.07;100.00
67840;BME280;54636;51.684;5.142;2024-02-26T12:37:53;100591.19;;;5.05;100.00
67840;BME280;54636;51.684;5.142;2024-02-26T12:40:20;100578.63;;;5.02;100.00
67840;BME280;54636;51.684;5.142;2024-02-26T12:42:45;100571.88;;;4.97;100.00
67840;BME280;54636;51.684;5.142;2024-02-26T12:45:12;100594.31;;;5.04;100.00
67840;BME280;54636;51.684;5.142;2024-02-26T12:47:38;100607.47;;;5.02;100.00
67840;BME280;54636;51.684;5.142;2024-02-26T12:50:05;100589.84;;;5.01;100.00
67840;BME280;54636;51.684;5.142;2024-02-26T12:52:35;100600.91;;;5.03;100.00
67840;BME280;54636;51.684;5.142;2024-02-26T12:55:04;100609.72;;;5.03;100.00